createdAt,value
2022-09-11T00:05:14.874Z,100844.50
2022-09-11T00:10:40.733Z,100842.91
2022-09-11T00:16:10.997Z,100855.00
2022-09-11T00:21:35.201Z,100824.16
2022-09-11T00:26:58.952Z,100780.16
2022-09-11T00:32:25.063Z,100811.16
2022-09-11T00:37:49.010Z,100808.75
2022-09-11T00:43:11.263Z,100830.81
2022-09-11T00:48:38.853Z,100775.38
2022-09-11T00:54:08.122Z,100807.38
2022-09-11T00:59:32.428Z,100834.81
2022-09-11T01:04:56.643Z,100806.13
2022-09-11T01:10:19.492Z,100786.53
2022-09-11T01:16:14.266Z,100790.97
2022-09-11T01:22:08.272Z,100840.00
2022-09-11T01:27:46.031Z,100835.50
2022-09-11T01:33:25.152Z,100787.28
2022-09-11T01:39:09.872Z,100832.22
2022-09-11T01:44:43.432Z,100782.06
2022-09-11T01:50:14.880Z,100774.84
2022-09-11T01:55:40.992Z,100810.44
2022-09-11T02:01:13.454Z,100786.69
2022-09-11T02:06:43.232Z,100826.09
2022-09-11T02:12:07.642Z,100824.94
2022-09-11T02:17:54.753Z,100821.41
2022-09-11T02:23:22.750Z,100792.03
2022-09-11T02:28:47.693Z,100818.94
2022-09-11T02:34:13.792Z,100806.66
2022-09-11T02:39:48.883Z,100812.50
2022-09-11T02:45:16.702Z,100808.25
2022-09-11T02:50:46.502Z,100802.13
2022-09-11T02:56:15.432Z,100806.91
2022-09-11T03:02:10.631Z,100809.34
2022-09-11T03:07:33.891Z,100803.22
2022-09-11T03:12:56.492Z,100780.09
2022-09-11T03:18:18.973Z,100768.94
2022-09-11T03:23:41.418Z,100728.00
2022-09-11T03:29:05.041Z,100743.19
2022-09-11T03:34:28.156Z,100758.72
2022-09-11T03:39:55.469Z,100740.66
2022-09-11T03:45:17.862Z,100753.66
2022-09-11T03:50:42.742Z,100754.00
2022-09-11T03:56:05.602Z,100749.34
2022-09-11T04:01:36.302Z,100788.47
2022-09-11T04:06:58.840Z,100799.75
2022-09-11T04:12:22.378Z,100806.56
2022-09-11T04:17:44.763Z,100810.50
2022-09-11T04:23:07.020Z,100797.00
2022-09-11T04:28:31.082Z,100806.63
2022-09-11T04:33:57.767Z,100809.16
2022-09-11T04:39:25.202Z,100767.81
2022-09-11T04:44:47.660Z,100809.28
2022-09-11T04:50:10.024Z,100812.50
2022-09-11T04:55:32.265Z,100811.50
2022-09-11T05:00:55.388Z,100792.31
2022-09-11T05:06:17.620Z,100750.97
2022-09-11T05:11:42.582Z,100774.81
2022-09-11T05:17:08.413Z,100786.72
2022-09-11T05:22:37.742Z,100749.50
2022-09-11T05:28:02.409Z,100776.97
2022-09-11T05:39:42.552Z,100767.66
2022-09-11T05:45:07.733Z,100769.50
2022-09-11T05:50:32.393Z,100748.41
2022-09-11T05:55:55.892Z,100763.06
2022-09-11T06:01:24.713Z,100744.84
2022-09-11T06:14:13.712Z,100747.81
2022-09-11T06:19:38.543Z,100780.50
2022-09-11T06:25:00.500Z,100773.69
2022-09-11T06:30:23.683Z,100723.31
2022-09-11T06:35:46.570Z,100769.63
2022-09-11T06:41:12.382Z,100763.56
2022-09-11T06:46:35.903Z,100745.84
2022-09-11T06:51:59.463Z,100758.88
2022-09-11T06:57:22.732Z,100740.75
2022-09-11T07:02:45.742Z,100769.41
2022-09-11T07:08:08.931Z,100717.13
2022-09-11T07:13:37.301Z,100719.47
2022-09-11T07:19:04.912Z,100748.25
2022-09-11T07:24:29.951Z,100727.63
2022-09-11T07:29:52.184Z,100716.81
2022-09-11T07:35:24.222Z,100768.38
2022-09-11T07:40:49.904Z,100716.25
2022-09-11T07:46:13.252Z,100706.50
2022-09-11T07:51:35.961Z,100691.75
2022-09-11T07:57:00.912Z,100731.38
2022-09-11T08:02:24.369Z,100724.31
2022-09-11T08:07:48.394Z,100670.28
2022-09-11T08:13:15.774Z,100681.34
2022-09-11T08:18:41.534Z,100694.34
2022-09-11T08:24:07.971Z,100666.13
2022-09-11T08:29:34.452Z,100665.66
2022-09-11T08:35:04.124Z,100670.63
2022-09-11T08:40:32.464Z,100637.06
2022-09-11T08:46:10.006Z,100673.13
2022-09-11T08:51:36.542Z,100685.03
2022-09-11T08:57:31.269Z,100657.09
2022-09-11T09:03:13.283Z,100679.69
2022-09-11T09:09:01.174Z,100680.19
2022-09-11T09:14:52.629Z,100676.59
2022-09-11T09:20:21.734Z,100666.41
2022-09-11T09:25:46.484Z,100671.38
2022-09-11T09:31:11.686Z,100675.41
2022-09-11T09:37:10.881Z,100672.69
2022-09-11T09:42:59.413Z,100666.25
2022-09-11T09:48:21.452Z,100658.94
2022-09-11T09:53:52.274Z,100657.94
2022-09-11T09:59:23.894Z,100654.22
2022-09-11T10:04:47.978Z,100608.75
2022-09-11T10:10:23.502Z,100603.00
2022-09-11T10:15:48.912Z,100586.47
2022-09-11T10:21:21.734Z,100651.16
2022-09-11T10:26:51.388Z,100602.88
2022-09-11T10:32:19.053Z,100602.13
2022-09-11T10:37:40.852Z,100577.81
2022-09-11T10:43:03.593Z,100552.03
2022-09-11T10:48:25.853Z,100562.09
2022-09-11T10:54:00.452Z,100628.09
2022-09-11T10:59:29.685Z,100574.28
2022-09-11T11:04:52.743Z,100588.06
2022-09-11T11:10:38.678Z,100616.59
2022-09-11T11:16:34.364Z,100630.69
2022-09-11T11:22:20.953Z,100622.63
2022-09-11T11:28:04.405Z,100559.47
2022-09-11T11:33:54.843Z,100614.88
2022-09-11T11:39:26.182Z,100606.06
2022-09-11T11:44:54.894Z,100618.84
2022-09-11T11:50:34.062Z,100596.50
2022-09-11T11:56:15.482Z,100606.84
2022-09-11T12:01:52.064Z,100587.63
2022-09-11T12:07:23.252Z,100595.03
2022-09-11T12:12:48.842Z,100569.69
2022-09-11T12:18:16.764Z,100589.91
2022-09-11T12:24:00.584Z,100575.78
2022-09-11T12:29:31.242Z,100555.81
2022-09-11T12:35:03.513Z,100558.09
2022-09-11T12:40:52.827Z,100556.53
2022-09-11T12:46:31.590Z,100558.75
2022-09-11T12:52:17.416Z,100476.44
2022-09-11T12:57:46.915Z,100529.28
2022-09-11T13:09:47.575Z,100535.03
2022-09-11T13:15:33.097Z,100535.63
2022-09-11T13:21:11.724Z,100527.47
2022-09-11T13:26:34.100Z,100527.16
2022-09-11T13:31:58.884Z,100526.47
2022-09-11T13:37:41.812Z,100523.72
2022-09-11T13:43:04.603Z,100520.69
2022-09-11T13:48:27.095Z,100523.28
2022-09-11T13:54:13.731Z,100506.84
2022-09-11T13:59:50.083Z,100516.16
2022-09-11T14:05:27.222Z,100515.50
2022-09-11T14:10:56.365Z,100491.16
2022-09-11T14:16:29.944Z,100469.19
2022-09-11T14:21:58.902Z,100456.03
2022-09-11T14:27:34.004Z,100515.00
2022-09-11T14:33:37.025Z,100522.00
2022-09-11T14:38:59.402Z,100463.09
2022-09-11T14:44:26.922Z,100444.94
2022-09-11T14:49:55.810Z,100507.72
2022-09-11T14:55:20.384Z,100438.34
2022-09-11T15:00:43.763Z,100443.13
2022-09-11T15:06:16.798Z,100461.63
2022-09-11T15:11:42.524Z,100480.44
2022-09-11T15:17:10.622Z,100488.75
2022-09-11T15:22:33.391Z,100424.06
2022-09-11T15:28:01.182Z,100449.94
2022-09-11T15:33:25.414Z,100478.22
2022-09-11T15:38:58.322Z,100403.19
2022-09-11T15:44:25.871Z,100406.03
2022-09-11T15:49:56.243Z,100456.00
2022-09-11T15:55:27.132Z,100436.25
2022-09-11T16:00:49.747Z,100446.97
2022-09-11T16:06:12.111Z,100475.16
2022-09-11T16:11:34.665Z,100486.63
2022-09-11T16:16:58.429Z,100479.03
2022-09-11T16:22:20.883Z,100479.59
2022-09-11T16:27:44.140Z,100490.69
2022-09-11T16:33:06.232Z,100500.88
2022-09-11T16:38:29.742Z,100508.09
2022-09-11T16:43:53.241Z,100507.16
2022-09-11T16:49:18.243Z,100505.34
2022-09-11T16:54:40.192Z,100506.78
2022-09-11T17:00:02.461Z,100504.16
2022-09-11T17:05:28.932Z,100494.28
2022-09-11T17:10:59.802Z,100424.81
2022-09-11T17:16:26.899Z,100437.75
2022-09-11T17:21:51.963Z,100500.34
2022-09-11T17:27:17.341Z,100432.97
2022-09-11T17:32:39.805Z,100417.97
2022-09-11T17:38:02.710Z,100465.03
2022-09-11T17:43:25.577Z,100468.81
2022-09-11T17:48:48.422Z,100476.09
2022-09-11T17:54:10.673Z,100429.59
2022-09-11T17:59:36.082Z,100461.06
2022-09-11T18:04:58.192Z,100481.75
2022-09-11T18:10:24.072Z,100500.84
2022-09-11T18:15:46.217Z,100490.09
2022-09-11T18:21:09.942Z,100489.53
2022-09-11T18:26:37.132Z,100497.59
2022-09-11T18:32:00.180Z,100504.56
2022-09-11T18:37:22.642Z,100513.44
2022-09-11T18:42:44.346Z,100510.44
2022-09-11T18:48:06.443Z,100495.31
2022-09-11T18:53:28.312Z,100500.94
2022-09-11T18:58:52.620Z,100518.69
2022-09-11T19:04:15.282Z,100483.41
2022-09-11T19:09:37.715Z,100483.41
2022-09-11T19:15:00.430Z,100433.34
2022-09-11T19:20:26.162Z,100454.28
2022-09-11T19:25:48.364Z,100489.78
2022-09-11T19:31:15.039Z,100441.81
2022-09-11T19:36:37.636Z,100454.69
2022-09-11T19:42:03.442Z,100469.75
2022-09-11T19:47:26.111Z,100455.16
2022-09-11T19:52:48.333Z,100474.00
2022-09-11T19:58:13.132Z,100443.44
2022-09-11T20:03:36.102Z,100481.56
2022-09-11T20:09:19.740Z,100516.09
2022-09-11T20:14:42.810Z,100481.34
2022-09-11T20:20:05.112Z,100485.50
2022-09-11T20:25:27.732Z,100480.13
2022-09-11T20:30:49.742Z,100510.78
2022-09-11T20:36:14.752Z,100518.22
2022-09-11T20:41:38.152Z,100513.66
2022-09-11T20:47:00.520Z,100513.50
2022-09-11T20:52:22.333Z,100516.44
2022-09-11T20:57:44.353Z,100525.00
2022-09-11T21:03:06.482Z,100489.91
2022-09-11T21:08:31.023Z,100476.94
2022-09-11T21:13:53.729Z,100503.91
2022-09-11T21:19:15.852Z,100490.66
2022-09-11T21:24:43.464Z,100472.31
2022-09-11T21:30:08.419Z,100490.34
2022-09-11T21:35:33.604Z,100487.66
2022-09-11T21:41:01.973Z,100519.28
2022-09-11T21:46:27.201Z,100446.59
2022-09-11T21:51:49.523Z,100506.69
2022-09-11T21:57:11.722Z,100482.63
2022-09-11T22:02:36.582Z,100530.06
2022-09-11T22:07:58.912Z,100528.47
2022-09-11T22:13:21.072Z,100542.00
2022-09-11T22:18:43.432Z,100535.94
2022-09-11T22:24:06.151Z,100454.09
2022-09-11T22:29:28.252Z,100535.50
2022-09-11T22:34:50.256Z,100507.28
2022-09-11T22:40:12.449Z,100514.69
2022-09-11T22:45:34.692Z,100532.50
2022-09-11T22:50:58.132Z,100536.03
2022-09-11T22:56:20.412Z,100476.78
2022-09-11T23:01:42.125Z,100524.50
2022-09-11T23:07:18.891Z,100484.03
2022-09-11T23:12:42.251Z,100471.13
2022-09-11T23:18:04.791Z,100464.03
2022-09-11T23:23:27.019Z,100462.59
2022-09-11T23:28:52.254Z,100507.56
2022-09-11T23:34:21.971Z,100451.44
2022-09-11T23:39:44.541Z,100473.47
2022-09-11T23:45:10.152Z,100487.47
2022-09-11T23:50:32.820Z,100452.06
2022-09-11T23:55:56.952Z,100479.44
